Time;durP1;ratioP1;P1;durP2;ratioP2;P2;SDS_P1;SDS_P2;PMS_P1;PMS_P2;Temp;Humidity;BMP_temperature;BMP_pressure;BME280_temperature;BME280_humidity;BME280_pressure;Samples;Min_cycle;Max_cycle;Signal;HPM_P1;HPM_P2
2022/02/12 00:00:43;;;;;;;;;;;;;;;18.40;60.44;101499.41;5073295;28;1417;-34
2022/02/12 00:03:13;;;;;;;;;;;;;;;18.39;59.95;101496.81;5073127;28;1919;-34
2022/02/12 00:05:42;;;;;;;;;;;;;;;18.38;60.37;101492.41;5073777;28;1135;-34
2022/02/12 00:08:11;;;;;;;;;;;;;;;18.38;60.50;101493.31;5072978;28;1867;-34
2022/02/12 00:10:44;;;;;;;;;;;;;;;18.39;60.03;101500.34;5063665;28;1718;-34
2022/02/12 00:13:12;;;;;;;;;;;;;;;18.39;60.25;101511.06;5071967;28;1660;-34
2022/02/12 00:15:39;;;;;;;;;;;;;;;18.36;60.16;101487.19;5073269;28;1681;-33
2022/02/12 00:18:08;;;;;;;;;;;;;;;18.37;60.18;101510.31;5055576;28;1973;-34
2022/02/12 00:20:43;;;;;;;;;;;;;;;18.38;60.29;101503.13;5073922;28;1037;-35
2022/02/12 00:23:11;;;;;;;;;;;;;;;18.36;60.47;101491.69;5072972;28;1831;-34
2022/02/12 00:25:37;;;;;;;;;;;;;;;18.37;60.32;101506.78;5072311;28;1761;-34
2022/02/12 00:28:12;;;;;;;;;;;;;;;18.37;60.25;101501.44;5064633;28;1799;-35
2022/02/12 00:30:39;;;;;;;;;;;;;;;18.36;60.23;101486.31;5068553;28;1955;-34
2022/02/12 00:33:12;;;;;;;;;;;;;;;18.37;60.29;101496.94;5071852;28;1746;-34
2022/02/12 00:35:42;;;;;;;;;;;;;;;18.35;60.45;101490.00;5073281;28;1639;-34
2022/02/12 00:38:08;;;;;;;;;;;;;;;18.36;60.47;101513.09;5073274;28;1969;-34
2022/02/12 00:40:35;;;;;;;;;;;;;;;18.33;59.75;101486.56;5073283;28;1993;-34
2022/02/12 00:43:04;;;;;;;;;;;;;;;18.32;59.85;101506.25;5065640;28;1545;-34
2022/02/12 00:45:39;;;;;;;;;;;;;;;18.30;60.17;101493.00;5073198;28;1858;-34
2022/02/12 00:48:07;;;;;;;;;;;;;;;18.31;59.59;101497.38;5059117;28;1398;-35
2022/02/12 00:50:35;;;;;;;;;;;;;;;18.31;60.06;101504.56;5072387;28;1730;-34
2022/02/12 00:53:04;;;;;;;;;;;;;;;18.28;60.31;101501.16;5073648;28;1007;-34
2022/02/12 00:55:30;;;;;;;;;;;;;;;18.29;59.79;101502.84;5072872;28;1587;-35
2022/02/12 00:58:00;;;;;;;;;;;;;;;18.29;59.82;101491.28;5065249;28;1984;-34
2022/02/12 01:00:27;;;;;;;;;;;;;;;18.27;59.74;101485.19;5059898;28;1757;-35
2022/02/12 01:02:59;;;;;;;;;;;;;;;18.29;60.16;101502.84;5072189;28;1851;-34
2022/02/12 01:05:39;;;;;;;;;;;;;;;18.26;59.83;101494.19;5071343;28;1947;-34
2022/02/12 01:08:08;;;;;;;;;;;;;;;18.28;60.09;101500.28;5072738;28;1873;-35
2022/02/12 01:10:59;;;;;;;;;;;;;;;18.27;59.91;101504.78;5072976;28;1939;-34
2022/02/12 01:13:28;;;;;;;;;;;;;;;18.27;59.91;101499.44;5059867;28;1993;-34
2022/02/12 01:15:58;;;;;;;;;;;;;;;18.28;60.12;101498.47;5072288;28;1696;-35
2022/02/12 01:18:30;;;;;;;;;;;;;;;18.29;59.84;101485.94;5072554;28;1902;-34
2022/02/12 01:21:00;;;;;;;;;;;;;;;18.27;59.75;101494.06;5073048;28;1023;-35
2022/02/12 01:23:27;;;;;;;;;;;;;;;18.31;59.95;101491.19;5073002;28;1851;-34
2022/02/12 01:25:54;;;;;;;;;;;;;;;18.32;60.04;101495.56;5072969;28;1830;-34
2022/02/12 01:28:24;;;;;;;;;;;;;;;18.32;59.71;101519.66;5062007;28;1840;-34
2022/02/12 01:30:50;;;;;;;;;;;;;;;18.29;60.05;101492.13;5062381;28;1898;-34
2022/02/12 01:33:19;;;;;;;;;;;;;;;18.32;60.24;101491.03;5069343;28;1896;-34
2022/02/12 01:35:51;;;;;;;;;;;;;;;18.31;60.08;101515.28;5076062;28;1756;-34
2022/02/12 01:38:18;;;;;;;;;;;;;;;18.26;59.71;101502.22;5075462;28;1977;-34
2022/02/12 01:40:45;;;;;;;;;;;;;;;18.29;59.73;101508.22;5076277;28;1899;-34
2022/02/12 01:43:15;;;;;;;;;;;;;;;18.26;59.73;101494.19;5062600;28;1769;-35
2022/02/12 01:45:44;;;;;;;;;;;;;;;18.24;59.49;101494.31;5075672;28;1592;-34
2022/02/12 01:48:13;;;;;;;;;;;;;;;18.28;60.01;101506.50;5075754;28;1765;-34
2022/02/12 01:50:42;;;;;;;;;;;;;;;18.24;59.47;101494.31;5076166;28;1433;-34
2022/02/12 01:53:12;;;;;;;;;;;;;;;18.23;60.01;101507.81;5076186;28;1775;-35
2022/02/12 01:55:40;;;;;;;;;;;;;;;18.26;59.99;101503.09;5076236;28;1622;-34
2022/02/12 01:58:09;;;;;;;;;;;;;;;18.28;59.71;101498.47;5073956;28;1906;-34
2022/02/12 02:00:37;;;;;;;;;;;;;;;18.26;60.12;101508.44;5073836;28;1648;-34
2022/02/12 02:03:05;;;;;;;;;;;;;;;18.28;59.54;101505.63;5075703;28;1720;-34
2022/02/12 02:05:31;;;;;;;;;;;;;;;18.26;59.80;101519.16;5069662;28;1850;-34
2022/02/12 02:08:18;;;;;;;;;;;;;;;18.23;60.27;101519.38;5075898;28;1139;-34
2022/02/12 02:10:54;;;;;;;;;;;;;;;18.25;60.23;101533.50;5074786;28;1822;-34
2022/02/12 02:13:30;;;;;;;;;;;;;;;18.25;59.52;101538.84;5075879;28;2116;-35
2022/02/12 02:15:56;;;;;;;;;;;;;;;18.20;59.46;101541.00;5075627;28;1682;-34
2022/02/12 02:18:24;;;;;;;;;;;;;;;18.24;60.05;101528.25;5075182;28;1902;-34
2022/02/12 02:20:50;;;;;;;;;;;;;;;18.21;60.18;101536.50;5075878;28;1091;-34
2022/02/12 02:23:21;;;;;;;;;;;;;;;18.19;59.93;101544.66;5075853;28;1814;-34
2022/02/12 02:25:50;;;;;;;;;;;;;;;18.22;60.12;101544.44;5073970;28;1916;-34
2022/02/12 02:31:05;;;;;;;;;;;;;;;18.22;60.10;101551.59;5074920;28;2460;-35
2022/02/12 02:33:34;;;;;;;;;;;;;;;18.24;60.38;101555.91;5074969;28;1907;-34
2022/02/12 02:36:02;;;;;;;;;;;;;;;18.24;60.26;101536.28;5070887;28;1814;-34
2022/02/12 02:38:35;;;;;;;;;;;;;;;18.28;59.64;101545.78;5074917;28;1909;-34
2022/02/12 02:41:01;;;;;;;;;;;;;;;18.32;59.22;101559.81;5070032;28;1706;-34
2022/02/12 02:43:29;;;;;;;;;;;;;;;18.33;59.97;101550.84;5069032;28;1547;-34
2022/02/12 02:45:55;;;;;;;;;;;;;;;18.30;59.70;101554.56;5074514;28;1784;-34
2022/02/12 02:48:22;;;;;;;;;;;;;;;18.29;59.63;101561.75;5073958;28;1421;-34
2022/02/12 02:56:22;;;;;;;;;;;;;;;18.21;59.93;101574.84;5070514;28;1624;-34
2022/02/12 02:58:52;;;;;;;;;;;;;;;18.23;60.08;101572.06;5074741;28;2022;-34
2022/02/12 03:01:22;;;;;;;;;;;;;;;18.21;60.03;101596.25;5164316;22;3672;-34
2022/02/12 03:03:50;;;;;;;;;;;;;;;18.20;59.80;101588.34;5035097;28;1402;-34
2022/02/12 03:06:31;;;;;;;;;;;;;;;18.21;60.06;101595.41;5053516;28;1640;-34
2022/02/12 03:09:06;;;;;;;;;;;;;;;18.21;59.74;101582.03;5053545;28;1180;-34
2022/02/12 03:11:32;;;;;;;;;;;;;;;18.18;59.91;101595.63;5016713;28;1558;-34
2022/02/12 03:13:59;;;;;;;;;;;;;;;18.18;59.91;101588.44;5030364;28;1776;-34
2022/02/12 03:16:25;;;;;;;;;;;;;;;18.19;59.85;101597.34;5043100;28;1888;-34
2022/02/12 03:19:01;;;;;;;;;;;;;;;18.19;60.09;101600.03;5044268;28;1985;-34
2022/02/12 03:21:31;;;;;;;;;;;;;;;18.20;60.21;101591.84;5039810;28;990;-34
2022/02/12 03:24:10;;;;;;;;;;;;;;;18.22;59.83;101603.34;5038232;28;1564;-34
2022/02/12 03:26:37;;;;;;;;;;;;;;;18.21;59.85;101601.63;5043261;28;1403;-34
2022/02/12 03:29:03;;;;;;;;;;;;;;;18.21;59.95;101600.78;5035226;28;1387;-34
2022/02/12 03:34:15;;;;;;;;;;;;;;;18.19;60.33;101606.22;5045117;28;1612;-35
2022/02/12 03:36:44;;;;;;;;;;;;;;;18.20;60.01;101626.66;5038040;28;1050;-34
2022/02/12 03:39:16;;;;;;;;;;;;;;;18.21;59.83;101617.69;5046259;28;1938;-35
2022/02/12 03:41:42;;;;;;;;;;;;;;;18.24;59.85;101633.53;5046028;28;1433;-34
2022/02/12 03:44:12;;;;;;;;;;;;;;;18.22;59.95;101634.59;5042327;28;1474;-34
2022/02/12 03:46:42;;;;;;;;;;;;;;;18.21;59.98;101644.44;5042330;28;1331;-34
2022/02/12 03:49:11;;;;;;;;;;;;;;;18.20;59.78;101631.16;5034110;28;1842;-34
2022/02/12 03:51:38;;;;;;;;;;;;;;;18.20;60.24;101637.38;5040271;28;1332;-34
2022/02/12 03:54:06;;;;;;;;;;;;;;;18.16;59.75;101630.53;5043356;28;1597;-35
2022/02/12 03:56:35;;;;;;;;;;;;;;;18.15;59.71;101636.00;5045491;28;1142;-34
2022/02/12 03:59:04;;;;;;;;;;;;;;;18.15;60.28;101639.53;5046201;28;1984;-34
2022/02/12 04:01:30;;;;;;;;;;;;;;;18.18;59.94;101644.66;5037143;28;1783;-34
2022/02/12 04:04:00;;;;;;;;;;;;;;;18.19;60.03;101650.88;5040570;28;1764;-34
2022/02/12 04:06:27;;;;;;;;;;;;;;;18.17;60.39;101642.97;5044498;28;1667;-34
2022/02/12 04:08:56;;;;;;;;;;;;;;;18.20;60.20;101637.38;5041865;28;1795;-34
2022/02/12 04:11:24;;;;;;;;;;;;;;;18.22;60.14;101645.28;5036426;28;1015;-33
2022/02/12 04:13:54;;;;;;;;;;;;;;;18.17;59.85;101637.59;5037040;28;1584;-34
2022/02/12 04:16:23;;;;;;;;;;;;;;;18.18;59.73;101655.34;5042600;28;1807;-33
2022/02/12 04:18:52;;;;;;;;;;;;;;;18.17;60.00;101668.88;5048988;28;1974;-34
2022/02/12 04:21:19;;;;;;;;;;;;;;;18.16;60.06;101673.34;5053505;28;923;-34
2022/02/12 04:23:55;;;;;;;;;;;;;;;18.13;60.27;101678.94;5038647;28;1779;-34
2022/02/12 04:26:25;;;;;;;;;;;;;;;18.14;60.15;101680.63;5037500;28;2031;-35
2022/02/12 04:29:07;;;;;;;;;;;;;;;18.15;59.90;101674.34;5052937;28;1691;-35
2022/02/12 04:31:42;;;;;;;;;;;;;;;18.13;59.90;101673.59;5040197;28;1596;-35
2022/02/12 04:34:09;;;;;;;;;;;;;;;18.13;59.83;101678.94;5036041;28;1796;-35
2022/02/12 04:36:37;;;;;;;;;;;;;;;18.12;60.13;101690.59;5037101;28;1533;-34
2022/02/12 04:41:47;;;;;;;;;;;;;;;18.14;59.84;101686.00;5045174;28;1796;-34
2022/02/12 04:44:29;;;;;;;;;;;;;;;18.13;60.09;101695.00;5046345;28;1750;-34
2022/02/12 04:46:59;;;;;;;;;;;;;;;18.17;60.14;101706.34;5037834;28;1808;-34
2022/02/12 04:49:25;;;;;;;;;;;;;;;18.20;59.61;101700.78;5046468;28;1737;-35
2022/02/12 04:51:55;;;;;;;;;;;;;;;18.19;59.61;101707.97;5044416;28;1846;-34
2022/02/12 04:54:23;;;;;;;;;;;;;;;18.18;59.54;101708.91;5047835;28;1810;-34
2022/02/12 04:56:54;;;;;;;;;;;;;;;18.16;59.69;101713.50;5045694;28;1274;-34
2022/02/12 04:59:24;;;;;;;;;;;;;;;18.14;59.72;101714.59;5044974;28;1906;-34
2022/02/12 05:01:51;;;;;;;;;;;;;;;18.11;59.83;101707.63;5049812;28;1840;-35
2022/02/12 05:04:26;;;;;;;;;;;;;;;18.11;59.73;101718.34;5040067;28;1007;-34
2022/02/12 05:06:53;;;;;;;;;;;;;;;18.08;59.68;101713.19;5037026;28;1792;-34
2022/02/12 05:09:20;;;;;;;;;;;;;;;18.10;60.18;101727.31;5048173;28;1388;-34
2022/02/12 05:11:50;;;;;;;;;;;;;;;18.08;59.89;101743.50;5049575;28;2067;-34
2022/02/12 05:14:18;;;;;;;;;;;;;;;18.10;59.87;101746.06;5038991;28;1569;-34
2022/02/12 05:16:48;;;;;;;;;;;;;;;18.05;60.02;101745.53;5045301;28;1481;-34
2022/02/12 05:19:17;;;;;;;;;;;;;;;18.07;59.74;101751.63;5050339;28;2035;-34
2022/02/12 05:21:47;;;;;;;;;;;;;;;18.05;59.64;101742.84;5038494;28;1711;-35
2022/02/12 05:24:15;;;;;;;;;;;;;;;18.03;59.96;101744.78;5038796;28;1918;-34
2022/02/12 05:26:45;;;;;;;;;;;;;;;18.04;59.64;101760.72;5051107;28;1931;-34
2022/02/12 05:29:14;;;;;;;;;;;;;;;18.03;59.64;101764.38;5055061;28;1767;-34
2022/02/12 05:31:41;;;;;;;;;;;;;;;18.08;59.74;101774.75;5041659;28;1672;-34
2022/02/12 05:34:07;;;;;;;;;;;;;;;18.09;59.79;101769.31;5037573;28;951;-34
2022/02/12 05:36:35;;;;;;;;;;;;;;;18.08;60.02;101782.78;5038040;28;1923;-35
2022/02/12 05:39:09;;;;;;;;;;;;;;;18.09;59.71;101789.88;5044610;28;1917;-34
2022/02/12 05:41:36;;;;;;;;;;;;;;;18.14;61.11;101795.75;5046437;28;1150;-34
2022/02/12 05:44:04;;;;;;;;;;;;;;;18.14;61.65;101817.16;4980490;28;10868;-35
2022/02/12 05:46:32;;;;;;;;;;;;;;;18.23;61.41;101792.44;5019890;28;1644;-34
2022/02/12 05:48:59;;;;;;;;;;;;;;;18.89;59.39;101805.75;5043446;28;1651;-34
2022/02/12 05:51:30;;;;;;;;;;;;;;;19.54;58.27;101817.19;5039924;28;1764;-35
2022/02/12 05:53:57;;;;;;;;;;;;;;;19.73;58.26;101812.16;5034248;28;1689;-35
2022/02/12 05:56:26;;;;;;;;;;;;;;;19.97;58.34;101836.31;5054334;28;1068;-34
2022/02/12 05:58:52;;;;;;;;;;;;;;;20.17;56.80;101850.91;5052265;28;2412;-35
2022/02/12 06:01:21;;;;;;;;;;;;;;;20.26;57.47;101842.16;5041193;28;1715;-33
2022/02/12 06:03:51;;;;;;;;;;;;;;;20.12;57.52;101844.19;5032615;28;1394;-35
2022/02/12 06:06:21;;;;;;;;;;;;;;;20.23;57.85;101849.59;5045591;28;1753;-34
2022/02/12 06:08:50;;;;;;;;;;;;;;;20.19;57.26;101867.78;5051724;28;1609;-35
2022/02/12 06:11:19;;;;;;;;;;;;;;;20.23;57.77;101871.94;5024161;28;1865;-34
2022/02/12 06:13:54;;;;;;;;;;;;;;;20.35;57.85;101866.59;5029095;28;1815;-34
2022/02/12 06:16:21;;;;;;;;;;;;;;;20.63;56.55;101871.59;5049477;28;1803;-35
2022/02/12 06:18:48;;;;;;;;;;;;;;;20.44;56.49;101887.41;5034941;28;1971;-34
2022/02/12 06:21:16;;;;;;;;;;;;;;;20.39;57.44;101889.56;5045833;28;1081;-34
2022/02/12 06:23:46;;;;;;;;;;;;;;;20.38;57.43;101882.50;5050333;28;1759;-33
2022/02/12 06:26:18;;;;;;;;;;;;;;;20.33;57.22;101908.84;5041688;28;1861;-33
2022/02/12 06:28:46;;;;;;;;;;;;;;;20.22;57.79;101925.78;5039600;28;1797;-34
2022/02/12 06:31:16;;;;;;;;;;;;;;;20.11;58.26;101921.19;5044728;28;3051;-34
2022/02/12 06:33:45;;;;;;;;;;;;;;;20.02;58.69;101920.06;5051497;28;1818;-33
2022/02/12 06:36:15;;;;;;;;;;;;;;;19.96;59.90;101930.41;5039565;28;1639;-33
2022/02/12 06:38:45;;;;;;;;;;;;;;;19.94;58.96;101929.66;5029654;28;1906;-33
2022/02/12 06:41:11;;;;;;;;;;;;;;;19.95;59.82;101939.41;5037999;28;1712;-33
2022/02/12 06:43:41;;;;;;;;;;;;;;;19.91;59.44;101941.47;5049753;28;1701;-33
2022/02/12 06:46:11;;;;;;;;;;;;;;;19.68;59.43;101953.88;5042516;28;1668;-33
2022/02/12 06:48:44;;;;;;;;;;;;;;;19.59;58.32;101949.16;5049458;28;1541;-33
2022/02/12 06:51:14;;;;;;;;;;;;;;;19.64;58.31;101963.13;5031598;28;1517;-34
2022/02/12 06:53:43;;;;;;;;;;;;;;;19.67;58.09;101961.03;5036880;28;2039;-34
2022/02/12 06:56:13;;;;;;;;;;;;;;;19.62;59.15;101957.00;5046889;28;1047;-34
2022/02/12 06:58:43;;;;;;;;;;;;;;;19.64;59.30;101980.06;5046145;28;1947;-34
2022/02/12 07:01:11;;;;;;;;;;;;;;;19.60;59.19;101961.63;5045883;28;1596;-33
2022/02/12 07:03:40;;;;;;;;;;;;;;;19.66;59.30;101971.91;5041052;28;1511;-34
2022/02/12 07:06:13;;;;;;;;;;;;;;;19.70;58.25;101973.41;5042780;28;1904;-33
2022/02/12 07:08:43;;;;;;;;;;;;;;;19.67;59.21;101973.59;5048607;28;1506;-33
2022/02/12 07:11:10;;;;;;;;;;;;;;;19.69;58.44;101971.66;5026389;28;1372;-33
2022/02/12 07:13:37;;;;;;;;;;;;;;;19.60;58.91;101977.72;5026413;28;2041;-33
2022/02/12 07:18:45;;;;;;;;;;;;;;;19.55;58.63;101986.06;5033292;28;2531;-34
2022/02/12 07:21:18;;;;;;;;;;;;;;;19.53;59.21;101992.53;5031551;28;1636;-33
2022/02/12 07:26:26;;;;;;;;;;;;;;;19.52;59.67;102005.09;5025218;28;2224;-34
2022/02/12 07:28:54;;;;;;;;;;;;;;;19.60;58.80;102016.13;5025259;28;1601;-34
2022/02/12 07:31:23;;;;;;;;;;;;;;;19.47;59.25;102021.50;5040555;28;1728;-34
2022/02/12 07:33:52;;;;;;;;;;;;;;;19.52;58.83;102023.88;5038977;28;1563;-33
2022/02/12 07:36:26;;;;;;;;;;;;;;;19.48;58.70;102017.84;5044174;28;1613;-34
2022/02/12 07:38:55;;;;;;;;;;;;;;;19.57;58.54;102020.84;5035358;28;1914;-34
2022/02/12 07:41:26;;;;;;;;;;;;;;;19.53;59.35;102019.34;5023400;28;1609;-34
2022/02/12 07:43:56;;;;;;;;;;;;;;;19.59;58.80;102024.28;5021050;28;1764;-34
2022/02/12 07:46:23;;;;;;;;;;;;;;;19.74;58.59;102027.75;5035435;28;1625;-34
2022/02/12 07:48:49;;;;;;;;;;;;;;;19.79;58.47;102037.16;5028764;28;1613;-33
2022/02/12 07:51:19;;;;;;;;;;;;;;;19.70;58.60;102036.97;5023531;28;1808;-34
2022/02/12 07:53:49;;;;;;;;;;;;;;;19.64;60.18;102036.41;5039196;28;1469;-34
2022/02/12 07:56:19;;;;;;;;;;;;;;;19.63;59.68;102026.63;5026194;28;1351;-34
2022/02/12 07:58:48;;;;;;;;;;;;;;;19.71;56.81;102042.22;5030691;28;1898;-35
2022/02/12 08:01:16;;;;;;;;;;;;;;;19.74;60.23;102033.97;5036235;28;1641;-34
2022/02/12 08:03:44;;;;;;;;;;;;;;;19.70;59.31;102036.97;5030669;28;1569;-34
2022/02/12 08:08:57;;;;;;;;;;;;;;;19.65;61.02;102056.06;5040481;28;2433;-34
2022/02/12 08:11:29;;;;;;;;;;;;;;;19.66;61.15;102073.88;5027547;28;1545;-35
2022/02/12 08:13:56;;;;;;;;;;;;;;;19.65;60.38;102098.97;5021938;28;1509;-34
2022/02/12 08:16:23;;;;;;;;;;;;;;;19.66;60.35;102114.13;5042471;28;1613;-33
2022/02/12 08:18:57;;;;;;;;;;;;;;;19.61;60.00;102122.50;5039689;28;1902;-34
2022/02/12 08:21:31;;;;;;;;;;;;;;;19.64;60.28;102129.50;5037454;28;1012;-33
2022/02/12 08:24:01;;;;;;;;;;;;;;;19.65;60.18;102125.81;5038122;28;1938;-34
2022/02/12 08:26:31;;;;;;;;;;;;;;;19.61;60.34;102108.22;5043770;28;1856;-34
2022/02/12 08:28:58;;;;;;;;;;;;;;;19.62;61.63;102121.53;5015755;28;1325;-34
2022/02/12 08:31:25;;;;;;;;;;;;;;;19.60;61.49;102138.72;5038292;28;1085;-34
2022/02/12 08:33:54;;;;;;;;;;;;;;;19.58;61.41;102135.28;5049102;28;1466;-34
2022/02/12 08:36:23;;;;;;;;;;;;;;;19.52;61.92;102120.47;5040190;28;1521;-33
2022/02/12 08:38:49;;;;;;;;;;;;;;;19.59;60.73;102137.00;5045813;28;1992;-33
2022/02/12 08:41:22;;;;;;;;;;;;;;;19.57;61.73;102138.91;5047422;28;1803;-35
2022/02/12 08:43:52;;;;;;;;;;;;;;;19.49;61.86;102147.50;5047185;28;1935;-34
2022/02/12 08:46:21;;;;;;;;;;;;;;;19.53;60.70;102137.41;5047512;28;1208;-34
2022/02/12 08:48:50;;;;;;;;;;;;;;;19.48;61.01;102119.81;5034831;28;1756;-34
2022/02/12 08:51:19;;;;;;;;;;;;;;;19.48;60.66;102130.53;5046654;28;1634;-35
2022/02/12 08:53:48;;;;;;;;;;;;;;;19.47;60.95;102134.16;5037503;28;1490;-35
2022/02/12 08:56:15;;;;;;;;;;;;;;;19.51;61.42;102129.47;5041878;28;1062;-34
2022/02/12 08:58:45;;;;;;;;;;;;;;;19.46;61.43;102147.72;5047566;28;1906;-34
2022/02/12 09:01:12;;;;;;;;;;;;;;;19.47;61.39;102152.94;5045336;28;1843;-34
2022/02/12 09:03:39;;;;;;;;;;;;;;;19.45;60.79;102159.41;5023487;28;1824;-35
2022/02/12 09:06:09;;;;;;;;;;;;;;;19.42;61.21;102163.16;5054820;28;1007;-35
2022/02/12 09:08:36;;;;;;;;;;;;;;;19.42;60.64;102168.53;5039674;28;1842;-35
2022/02/12 09:11:06;;;;;;;;;;;;;;;19.38;61.76;102171.53;5040857;28;1514;-35
2022/02/12 09:13:36;;;;;;;;;;;;;;;19.41;61.25;102176.66;5045128;28;1578;-35
2022/02/12 09:16:06;;;;;;;;;;;;;;;19.41;60.84;102169.47;5022180;28;1754;-35
2022/02/12 09:18:36;;;;;;;;;;;;;;;19.43;61.56;102170.22;5035967;28;1954;-35
2022/02/12 09:21:05;;;;;;;;;;;;;;;19.41;61.58;102172.16;5042709;28;1040;-34
2022/02/12 09:23:33;;;;;;;;;;;;;;;19.29;61.53;102162.25;5048910;28;1839;-34
2022/02/12 09:26:00;;;;;;;;;;;;;;;19.26;61.69;102167.84;5046630;28;1609;-35
2022/02/12 09:28:27;;;;;;;;;;;;;;;19.23;61.61;102162.69;5053343;28;1027;-33
2022/02/12 09:30:53;;;;;;;;;;;;;;;19.32;61.88;102167.44;5045223;28;1767;-35
2022/02/12 09:33:22;;;;;;;;;;;;;;;19.32;60.89;102156.69;5039723;28;1726;-34
2022/02/12 09:36:01;;;;;;;;;;;;;;;19.36;60.97;102173.41;5037665;28;1851;-34
2022/02/12 09:38:28;;;;;;;;;;;;;;;19.27;60.71;102169.56;5042372;28;1817;-34
2022/02/12 09:40:59;;;;;;;;;;;;;;;19.34;60.62;102170.88;5045221;28;1902;-34
2022/02/12 09:43:26;;;;;;;;;;;;;;;19.33;60.58;102177.19;5047861;28;1870;-34
2022/02/12 09:46:26;;;;;;;;;;;;;;;19.35;61.34;102179.75;5040921;28;1644;-34
2022/02/12 09:48:54;;;;;;;;;;;;;;;19.31;61.48;102180.94;5026494;28;1949;-33
2022/02/12 09:51:24;;;;;;;;;;;;;;;19.45;60.91;102183.53;5050574;28;1838;-34
2022/02/12 09:53:54;;;;;;;;;;;;;;;19.54;61.04;102187.44;5046749;28;1656;-33
2022/02/12 09:56:21;;;;;;;;;;;;;;;19.61;60.90;102194.09;5036860;28;1081;-34
2022/02/12 09:58:52;;;;;;;;;;;;;;;19.62;60.53;102185.09;5043383;28;1784;-34
2022/02/12 10:01:21;;;;;;;;;;;;;;;19.68;60.64;102195.41;5041624;28;1641;-33
2022/02/12 10:03:52;;;;;;;;;;;;;;;19.70;60.65;102203.34;5040435;28;1459;-34
2022/02/12 10:06:41;;;;;;;;;;;;;;;19.70;59.90;102196.16;5037098;28;1743;-33
2022/02/12 10:09:10;;;;;;;;;;;;;;;19.67;59.78;102190.97;5051961;28;1603;-34
2022/02/12 10:11:40;;;;;;;;;;;;;;;19.67;60.31;102199.03;5045648;28;1065;-33
2022/02/12 10:14:11;;;;;;;;;;;;;;;19.64;61.02;102199.25;5037428;28;1620;-34
2022/02/12 10:16:54;;;;;;;;;;;;;;;19.66;60.86;102202.69;5042785;28;1652;-33
2022/02/12 10:19:28;;;;;;;;;;;;;;;19.64;61.38;102210.00;5037545;28;1988;-34
2022/02/12 10:22:12;;;;;;;;;;;;;;;19.57;60.35;102203.31;5037132;28;2032;-33
2022/02/12 10:25:03;;;;;;;;;;;;;;;19.50;61.06;102194.84;5019533;28;1829;-34
2022/02/12 10:27:31;;;;;;;;;;;;;;;19.45;61.75;102199.63;5042427;28;1943;-33
2022/02/12 10:30:02;;;;;;;;;;;;;;;19.42;60.98;102203.41;5042684;28;1597;-34
2022/02/12 10:32:28;;;;;;;;;;;;;;;19.37;61.08;102191.25;5036525;28;1560;-33
2022/02/12 10:34:57;;;;;;;;;;;;;;;19.34;61.41;102181.59;5036805;28;1372;-34
2022/02/12 10:37:29;;;;;;;;;;;;;;;19.38;60.83;102193.84;5037799;28;1760;-34
2022/02/12 10:39:57;;;;;;;;;;;;;;;19.38;61.14;102187.63;5037178;28;1942;-34
2022/02/12 10:42:33;;;;;;;;;;;;;;;19.33;60.62;102190.59;5042513;28;1089;-34
2022/02/12 10:45:03;;;;;;;;;;;;;;;19.32;60.71;102199.63;5049317;28;1078;-34
2022/02/12 10:47:30;;;;;;;;;;;;;;;19.30;61.80;102192.63;5040511;28;1836;-33
2022/02/12 10:49:59;;;;;;;;;;;;;;;19.26;60.76;102200.03;5047226;28;1360;-34
2022/02/12 10:52:39;;;;;;;;;;;;;;;19.25;61.17;102200.97;5039983;28;1947;-34
2022/02/12 10:55:06;;;;;;;;;;;;;;;19.28;60.62;102203.47;5052266;28;1312;-33
2022/02/12 10:57:38;;;;;;;;;;;;;;;19.26;61.45;102200.03;5054940;28;1791;-34
2022/02/12 11:00:05;;;;;;;;;;;;;;;19.23;61.23;102206.44;5040807;28;1906;-34
2022/02/12 11:02:38;;;;;;;;;;;;;;;19.18;61.44;102199.66;5043025;28;1755;-33
2022/02/12 11:05:09;;;;;;;;;;;;;;;19.17;61.38;102204.16;5039803;28;1573;-34
2022/02/12 11:07:44;;;;;;;;;;;;;;;19.20;62.07;102197.72;5038162;28;1427;-33
2022/02/12 11:10:12;;;;;;;;;;;;;;;19.12;61.81;102197.38;5040178;28;1717;-34
2022/02/12 11:12:40;;;;;;;;;;;;;;;19.13;60.96;102209.84;5019337;28;1848;-33
2022/02/12 11:18:00;;;;;;;;;;;;;;;19.22;60.67;102195.84;5030800;28;1584;-35
2022/02/12 11:20:27;;;;;;;;;;;;;;;19.23;59.86;102206.44;5039501;28;1906;-33
2022/02/12 11:23:09;;;;;;;;;;;;;;;19.25;59.44;102211.69;5030973;28;1704;-33
2022/02/12 11:25:43;;;;;;;;;;;;;;;19.33;59.58;102212.06;5042598;28;2084;-34
2022/02/12 11:28:11;;;;;;;;;;;;;;;19.30;60.45;102212.28;5054984;28;1086;-34
2022/02/12 11:30:38;;;;;;;;;;;;;;;19.27;60.90;102212.47;5046418;28;1787;-34
2022/02/12 11:33:30;;;;;;;;;;;;;;;19.17;61.15;102206.00;5040183;28;1634;-34
2022/02/12 11:36:19;;;;;;;;;;;;;;;19.22;61.10;102207.41;5035014;28;1647;-34
2022/02/12 11:38:50;;;;;;;;;;;;;;;19.16;61.19;102199.78;5043453;28;1710;-33
2022/02/12 11:41:24;;;;;;;;;;;;;;;19.21;60.89;102208.34;5042516;28;1910;-35
2022/02/12 11:43:54;;;;;;;;;;;;;;;19.21;61.26;102219.09;5046828;28;1525;-34
2022/02/12 11:49:28;;;;;;;;;;;;;;;19.05;60.96;102219.25;5038973;28;2343;-34
2022/02/12 11:51:55;;;;;;;;;;;;;;;19.02;61.76;102214.09;5044302;28;1637;-34
2022/02/12 11:54:43;;;;;;;;;;;;;;;19.05;60.80;102227.28;5037748;28;1633;-34
2022/02/12 11:57:11;;;;;;;;;;;;;;;18.98;61.58;102211.69;5035216;28;1736;-34
2022/02/12 11:59:40;;;;;;;;;;;;;;;18.96;61.50;102225.22;5038366;28;1991;-35
2022/02/12 12:02:10;;;;;;;;;;;;;;;18.93;61.49;102214.69;5045305;28;1711;-34
2022/02/12 12:04:41;;;;;;;;;;;;;;;18.87;61.48;102223.13;5050308;28;1778;-35
2022/02/12 12:07:10;;;;;;;;;;;;;;;18.91;61.52;102210.38;5039848;28;1529;-35
2022/02/12 12:10:06;;;;;;;;;;;;;;;18.97;60.81;102216.19;5044375;28;1668;-34
2022/02/12 12:12:49;;;;;;;;;;;;;;;19.31;60.26;102208.59;5027673;28;2056;-35
2022/02/12 12:15:26;;;;;;;;;;;;;;;19.52;59.20;102229.59;5026644;28;1699;-36
2022/02/12 12:18:02;;;;;;;;;;;;;;;19.71;59.60;102232.78;5049885;28;1708;-34
2022/02/12 12:20:38;;;;;;;;;;;;;;;19.79;58.47;102235.78;5039616;28;1906;-34
2022/02/12 12:23:06;;;;;;;;;;;;;;;19.86;58.83;102231.75;5035933;28;1858;-34
2022/02/12 12:25:52;;;;;;;;;;;;;;;19.91;59.03;102249.34;5044733;28;1630;-34
2022/02/12 12:28:30;;;;;;;;;;;;;;;19.87;58.74;102224.53;5043969;28;923;-34
2022/02/12 12:30:58;;;;;;;;;;;;;;;19.91;58.46;102226.03;5032255;28;1788;-33
2022/02/12 12:33:26;;;;;;;;;;;;;;;19.99;58.81;102236.25;5026632;28;1538;-33
2022/02/12 12:35:55;;;;;;;;;;;;;;;19.89;59.48;102240.53;5025915;28;1553;-34
2022/02/12 12:38:45;;;;;;;;;;;;;;;19.81;59.53;102241.06;5032143;28;1451;-35
2022/02/12 12:41:22;;;;;;;;;;;;;;;19.78;58.72;102244.84;5025157;28;1906;-35
2022/02/12 12:44:07;;;;;;;;;;;;;;;19.72;58.89;102242.56;5023199;28;1393;-34
2022/02/12 12:46:36;;;;;;;;;;;;;;;19.70;60.40;102243.63;5033597;28;1783;-35
2022/02/12 12:49:06;;;;;;;;;;;;;;;19.67;59.56;102247.34;5028864;28;1381;-34
2022/02/12 12:51:35;;;;;;;;;;;;;;;19.67;60.08;102247.34;5033291;28;1709;-34
2022/02/12 12:54:03;;;;;;;;;;;;;;;19.17;60.11;102243.53;5032980;28;1401;-34
2022/02/12 12:59:13;;;;;;;;;;;;;;;18.39;57.72;102244.00;5022127;28;2423;-34
2022/02/12 13:01:55;;;;;;;;;;;;;;;18.32;58.44;102251.53;5022907;28;1967;-34
2022/02/12 13:04:23;;;;;;;;;;;;;;;18.42;57.94;102251.84;5036592;28;1418;-35
2022/02/12 13:06:58;;;;;;;;;;;;;;;18.42;56.67;102268.78;5031937;28;1639;-34
2022/02/12 13:09:29;;;;;;;;;;;;;;;18.45;57.73;102257.88;5023105;28;1418;-35
2022/02/12 13:11:55;;;;;;;;;;;;;;;18.37;56.40;102270.88;5020162;28;1568;-34
2022/02/12 13:14:23;;;;;;;;;;;;;;;18.22;56.98;102278.06;5022091;28;1504;-34
2022/02/12 13:16:52;;;;;;;;;;;;;;;18.01;56.42;102279.34;5024548;28;1330;-34
2022/02/12 13:19:20;;;;;;;;;;;;;;;18.00;54.91;102278.47;5040218;28;1304;-35
2022/02/12 13:21:50;;;;;;;;;;;;;;;18.18;53.96;102275.63;5023761;28;1902;-35
2022/02/12 13:24:20;;;;;;;;;;;;;;;18.24;55.01;102285.97;5025594;28;1579;-35
2022/02/12 13:26:51;;;;;;;;;;;;;;;18.36;52.63;102287.03;5039658;28;2042;-34
2022/02/12 13:29:29;;;;;;;;;;;;;;;18.39;51.18;102278.81;5027835;28;1935;-34
2022/02/12 13:32:16;;;;;;;;;;;;;;;18.29;51.94;102292.78;5034428;28;1435;-34
2022/02/12 13:34:50;;;;;;;;;;;;;;;18.04;51.33;102288.03;5028159;28;1255;-34